sensor_id;sensor_type;location;lat;lon;timestamp;P1;durP1;ratioP1;P2;durP2;ratioP2
5157;SDS011;2598;52.364;9.772;2022-12-17T00:02:22;39.47;;;21.25;;
5157;SDS011;2598;52.364;9.772;2022-12-17T00:05:06;42.53;;;20.23;;
5157;SDS011;2598;52.364;9.772;2022-12-17T00:07:55;35.13;;;20.25;;
5157;SDS011;2598;52.364;9.772;2022-12-17T00:10:40;37.20;;;19.17;;
5157;SDS011;2598;52.364;9.772;2022-12-17T00:13:24;36.53;;;19.23;;
5157;SDS011;2598;52.364;9.772;2022-12-17T00:16:09;37.75;;;19.58;;
5157;SDS011;2598;52.364;9.772;2022-12-17T00:18:53;34.75;;;18.13;;
5157;SDS011;2598;52.364;9.772;2022-12-17T00:21:38;35.17;;;18.30;;
5157;SDS011;2598;52.364;9.772;2022-12-17T00:24:23;37.03;;;18.90;;
5157;SDS011;2598;52.364;9.772;2022-12-17T00:27:07;36.47;;;18.52;;
5157;SDS011;2598;52.364;9.772;2022-12-17T00:29:52;33.47;;;17.95;;
5157;SDS011;2598;52.364;9.772;2022-12-17T00:32:36;39.53;;;18.25;;
5157;SDS011;2598;52.364;9.772;2022-12-17T00:35:20;40.85;;;19.52;;
5157;SDS011;2598;52.364;9.772;2022-12-17T00:38:05;41.50;;;18.60;;
5157;SDS011;2598;52.364;9.772;2022-12-17T00:40:53;28.27;;;15.48;;
5157;SDS011;2598;52.364;9.772;2022-12-17T00:43:37;33.92;;;17.73;;
5157;SDS011;2598;52.364;9.772;2022-12-17T00:46:22;37.78;;;17.13;;
5157;SDS011;2598;52.364;9.772;2022-12-17T00:49:06;33.38;;;16.70;;
5157;SDS011;2598;52.364;9.772;2022-12-17T00:51:51;28.25;;;15.85;;
5157;SDS011;2598;52.364;9.772;2022-12-17T00:54:35;31.08;;;15.50;;
5157;SDS011;2598;52.364;9.772;2022-12-17T00:57:20;27.90;;;14.93;;
5157;SDS011;2598;52.364;9.772;2022-12-17T01:00:05;28.40;;;15.13;;
5157;SDS011;2598;52.364;9.772;2022-12-17T01:02:50;31.33;;;16.50;;
5157;SDS011;2598;52.364;9.772;2022-12-17T01:05:34;31.30;;;14.90;;
5157;SDS011;2598;52.364;9.772;2022-12-17T01:08:19;29.17;;;14.93;;
5157;SDS011;2598;52.364;9.772;2022-12-17T01:11:04;27.63;;;13.80;;
5157;SDS011;2598;52.364;9.772;2022-12-17T01:13:49;28.50;;;14.68;;
5157;SDS011;2598;52.364;9.772;2022-12-17T01:16:34;28.77;;;14.77;;
5157;SDS011;2598;52.364;9.772;2022-12-17T01:19:19;29.33;;;14.25;;
5157;SDS011;2598;52.364;9.772;2022-12-17T01:22:04;25.45;;;14.25;;
5157;SDS011;2598;52.364;9.772;2022-12-17T01:24:48;26.38;;;14.05;;
5157;SDS011;2598;52.364;9.772;2022-12-17T01:27:33;25.00;;;14.80;;
5157;SDS011;2598;52.364;9.772;2022-12-17T01:30:17;34.88;;;14.85;;
5157;SDS011;2598;52.364;9.772;2022-12-17T01:33:02;26.65;;;14.15;;
5157;SDS011;2598;52.364;9.772;2022-12-17T01:35:47;25.17;;;12.95;;
5157;SDS011;2598;52.364;9.772;2022-12-17T01:38:32;31.98;;;14.93;;
5157;SDS011;2598;52.364;9.772;2022-12-17T01:41:16;26.27;;;13.40;;
5157;SDS011;2598;52.364;9.772;2022-12-17T01:47:06;25.17;;;13.93;;
5157;SDS011;2598;52.364;9.772;2022-12-17T01:49:52;24.55;;;14.50;;
5157;SDS011;2598;52.364;9.772;2022-12-17T01:52:36;27.25;;;14.48;;
5157;SDS011;2598;52.364;9.772;2022-12-17T01:55:21;24.65;;;14.48;;
5157;SDS011;2598;52.364;9.772;2022-12-17T01:58:05;28.20;;;15.30;;
5157;SDS011;2598;52.364;9.772;2022-12-17T02:00:50;25.42;;;13.55;;
5157;SDS011;2598;52.364;9.772;2022-12-17T02:03:35;30.95;;;14.88;;
5157;SDS011;2598;52.364;9.772;2022-12-17T02:06:28;28.08;;;14.48;;
5157;SDS011;2598;52.364;9.772;2022-12-17T02:12:06;26.95;;;14.05;;
5157;SDS011;2598;52.364;9.772;2022-12-17T02:17:48;26.95;;;14.40;;
5157;SDS011;2598;52.364;9.772;2022-12-17T02:20:38;36.15;;;15.15;;
5157;SDS011;2598;52.364;9.772;2022-12-17T02:23:34;27.85;;;15.60;;
5157;SDS011;2598;52.364;9.772;2022-12-17T02:29:34;27.35;;;14.88;;
5157;SDS011;2598;52.364;9.772;2022-12-17T02:32:19;29.50;;;14.73;;
5157;SDS011;2598;52.364;9.772;2022-12-17T02:35:09;30.48;;;14.93;;
5157;SDS011;2598;52.364;9.772;2022-12-17T02:37:56;31.00;;;14.63;;
5157;SDS011;2598;52.364;9.772;2022-12-17T02:40:40;26.52;;;13.88;;
5157;SDS011;2598;52.364;9.772;2022-12-17T02:43:25;28.67;;;13.68;;
5157;SDS011;2598;52.364;9.772;2022-12-17T02:46:11;29.40;;;13.60;;
5157;SDS011;2598;52.364;9.772;2022-12-17T02:48:56;30.60;;;14.18;;
5157;SDS011;2598;52.364;9.772;2022-12-17T02:51:41;27.63;;;13.73;;
5157;SDS011;2598;52.364;9.772;2022-12-17T02:54:30;30.30;;;14.75;;
5157;SDS011;2598;52.364;9.772;2022-12-17T02:57:14;24.70;;;13.75;;
5157;SDS011;2598;52.364;9.772;2022-12-17T02:59:59;28.23;;;14.57;;
5157;SDS011;2598;52.364;9.772;2022-12-17T03:02:44;27.85;;;13.55;;
5157;SDS011;2598;52.364;9.772;2022-12-17T03:05:28;30.60;;;15.00;;
5157;SDS011;2598;52.364;9.772;2022-12-17T03:08:13;34.55;;;13.88;;
5157;SDS011;2598;52.364;9.772;2022-12-17T03:10:57;30.83;;;14.15;;
5157;SDS011;2598;52.364;9.772;2022-12-17T03:13:42;29.60;;;14.20;;
5157;SDS011;2598;52.364;9.772;2022-12-17T03:16:27;27.45;;;12.57;;
5157;SDS011;2598;52.364;9.772;2022-12-17T03:19:11;26.42;;;13.73;;
5157;SDS011;2598;52.364;9.772;2022-12-17T03:21:56;27.15;;;13.70;;
5157;SDS011;2598;52.364;9.772;2022-12-17T03:24:40;27.35;;;14.55;;
5157;SDS011;2598;52.364;9.772;2022-12-17T03:27:25;28.63;;;14.38;;
5157;SDS011;2598;52.364;9.772;2022-12-17T03:30:10;34.72;;;15.13;;
5157;SDS011;2598;52.364;9.772;2022-12-17T03:32:55;25.85;;;13.50;;
5157;SDS011;2598;52.364;9.772;2022-12-17T03:35:59;28.30;;;13.95;;
5157;SDS011;2598;52.364;9.772;2022-12-17T03:38:44;28.23;;;13.90;;
5157;SDS011;2598;52.364;9.772;2022-12-17T03:41:28;29.45;;;13.30;;
5157;SDS011;2598;52.364;9.772;2022-12-17T03:44:13;22.25;;;12.60;;
5157;SDS011;2598;52.364;9.772;2022-12-17T03:46:57;29.10;;;14.10;;
5157;SDS011;2598;52.364;9.772;2022-12-17T03:49:42;24.08;;;12.90;;
5157;SDS011;2598;52.364;9.772;2022-12-17T03:52:26;29.30;;;13.43;;
5157;SDS011;2598;52.364;9.772;2022-12-17T03:55:11;25.50;;;11.65;;
5157;SDS011;2598;52.364;9.772;2022-12-17T03:57:55;23.55;;;10.45;;
5157;SDS011;2598;52.364;9.772;2022-12-17T04:00:40;20.23;;;10.52;;
5157;SDS011;2598;52.364;9.772;2022-12-17T04:03:24;23.83;;;11.52;;
5157;SDS011;2598;52.364;9.772;2022-12-17T04:06:09;21.98;;;11.93;;
5157;SDS011;2598;52.364;9.772;2022-12-17T04:08:54;21.88;;;10.77;;
5157;SDS011;2598;52.364;9.772;2022-12-17T04:11:39;23.92;;;10.40;;
5157;SDS011;2598;52.364;9.772;2022-12-17T04:14:23;19.00;;;9.90;;
5157;SDS011;2598;52.364;9.772;2022-12-17T04:17:08;21.67;;;10.70;;
5157;SDS011;2598;52.364;9.772;2022-12-17T04:19:52;21.10;;;10.30;;
5157;SDS011;2598;52.364;9.772;2022-12-17T04:22:37;20.35;;;10.80;;
5157;SDS011;2598;52.364;9.772;2022-12-17T04:25:22;23.30;;;10.82;;
5157;SDS011;2598;52.364;9.772;2022-12-17T04:28:06;21.10;;;10.98;;
5157;SDS011;2598;52.364;9.772;2022-12-17T04:30:51;19.45;;;9.60;;
5157;SDS011;2598;52.364;9.772;2022-12-17T04:33:35;20.98;;;9.63;;
5157;SDS011;2598;52.364;9.772;2022-12-17T04:36:20;23.30;;;11.20;;
5157;SDS011;2598;52.364;9.772;2022-12-17T04:39:04;19.98;;;10.00;;
5157;SDS011;2598;52.364;9.772;2022-12-17T04:41:49;24.95;;;10.73;;
5157;SDS011;2598;52.364;9.772;2022-12-17T04:44:33;26.02;;;10.90;;
5157;SDS011;2598;52.364;9.772;2022-12-17T04:47:18;19.48;;;9.68;;
5157;SDS011;2598;52.364;9.772;2022-12-17T04:50:03;17.48;;;10.20;;
5157;SDS011;2598;52.364;9.772;2022-12-17T04:52:47;21.38;;;9.40;;
5157;SDS011;2598;52.364;9.772;2022-12-17T04:55:32;28.83;;;9.30;;
5157;SDS011;2598;52.364;9.772;2022-12-17T04:58:16;21.70;;;10.10;;
5157;SDS011;2598;52.364;9.772;2022-12-17T05:01:01;18.73;;;9.40;;
5157;SDS011;2598;52.364;9.772;2022-12-17T05:03:45;17.48;;;9.82;;
5157;SDS011;2598;52.364;9.772;2022-12-17T05:06:30;19.38;;;9.60;;
5157;SDS011;2598;52.364;9.772;2022-12-17T05:09:14;22.52;;;10.00;;
5157;SDS011;2598;52.364;9.772;2022-12-17T05:11:59;20.15;;;9.88;;
5157;SDS011;2598;52.364;9.772;2022-12-17T05:14:43;20.75;;;9.75;;
5157;SDS011;2598;52.364;9.772;2022-12-17T05:17:28;23.98;;;10.65;;
5157;SDS011;2598;52.364;9.772;2022-12-17T05:20:12;20.65;;;8.95;;
5157;SDS011;2598;52.364;9.772;2022-12-17T05:23:02;19.90;;;9.80;;
5157;SDS011;2598;52.364;9.772;2022-12-17T05:25:47;20.77;;;11.00;;
5157;SDS011;2598;52.364;9.772;2022-12-17T05:28:31;21.33;;;10.82;;
5157;SDS011;2598;52.364;9.772;2022-12-17T05:31:16;20.75;;;10.80;;
5157;SDS011;2598;52.364;9.772;2022-12-17T05:34:00;23.50;;;11.07;;
5157;SDS011;2598;52.364;9.772;2022-12-17T05:36:45;18.58;;;9.43;;
5157;SDS011;2598;52.364;9.772;2022-12-17T05:39:29;25.20;;;11.02;;
5157;SDS011;2598;52.364;9.772;2022-12-17T05:42:14;23.27;;;10.50;;
5157;SDS011;2598;52.364;9.772;2022-12-17T05:44:59;19.92;;;9.75;;
5157;SDS011;2598;52.364;9.772;2022-12-17T05:47:43;20.73;;;10.13;;
5157;SDS011;2598;52.364;9.772;2022-12-17T05:50:28;18.90;;;8.73;;
5157;SDS011;2598;52.364;9.772;2022-12-17T05:53:12;21.30;;;10.15;;
5157;SDS011;2598;52.364;9.772;2022-12-17T05:55:57;20.45;;;9.57;;
5157;SDS011;2598;52.364;9.772;2022-12-17T05:58:41;21.00;;;9.88;;
5157;SDS011;2598;52.364;9.772;2022-12-17T06:01:26;20.83;;;9.77;;
5157;SDS011;2598;52.364;9.772;2022-12-17T06:04:11;18.90;;;9.85;;
5157;SDS011;2598;52.364;9.772;2022-12-17T06:06:55;20.33;;;10.63;;
5157;SDS011;2598;52.364;9.772;2022-12-17T06:09:40;18.02;;;9.05;;
5157;SDS011;2598;52.364;9.772;2022-12-17T06:12:24;22.90;;;10.90;;
5157;SDS011;2598;52.364;9.772;2022-12-17T06:15:09;22.90;;;8.60;;
5157;SDS011;2598;52.364;9.772;2022-12-17T06:17:54;24.17;;;9.27;;
5157;SDS011;2598;52.364;9.772;2022-12-17T06:20:39;18.65;;;9.80;;
5157;SDS011;2598;52.364;9.772;2022-12-17T06:23:23;21.40;;;9.88;;
5157;SDS011;2598;52.364;9.772;2022-12-17T06:26:08;23.58;;;10.18;;
5157;SDS011;2598;52.364;9.772;2022-12-17T06:28:52;19.13;;;9.63;;
5157;SDS011;2598;52.364;9.772;2022-12-17T06:31:37;23.30;;;10.00;;
5157;SDS011;2598;52.364;9.772;2022-12-17T06:34:22;30.65;;;10.20;;
5157;SDS011;2598;52.364;9.772;2022-12-17T06:37:06;22.65;;;10.80;;
5157;SDS011;2598;52.364;9.772;2022-12-17T06:39:51;21.38;;;9.50;;
5157;SDS011;2598;52.364;9.772;2022-12-17T06:42:35;20.63;;;9.50;;
5157;SDS011;2598;52.364;9.772;2022-12-17T06:45:20;18.25;;;9.45;;
5157;SDS011;2598;52.364;9.772;2022-12-17T06:48:05;24.60;;;10.18;;
5157;SDS011;2598;52.364;9.772;2022-12-17T06:50:54;22.75;;;9.68;;
5157;SDS011;2598;52.364;9.772;2022-12-17T06:53:39;17.85;;;9.13;;
5157;SDS011;2598;52.364;9.772;2022-12-17T06:56:24;23.50;;;9.93;;
5157;SDS011;2598;52.364;9.772;2022-12-17T06:59:08;22.85;;;9.85;;
5157;SDS011;2598;52.364;9.772;2022-12-17T07:01:53;16.17;;;8.80;;
5157;SDS011;2598;52.364;9.772;2022-12-17T07:04:37;22.13;;;10.30;;
5157;SDS011;2598;52.364;9.772;2022-12-17T07:07:22;21.20;;;9.75;;
5157;SDS011;2598;52.364;9.772;2022-12-17T07:10:06;19.55;;;9.38;;
5157;SDS011;2598;52.364;9.772;2022-12-17T07:12:51;17.45;;;9.40;;
5157;SDS011;2598;52.364;9.772;2022-12-17T07:15:36;19.98;;;9.05;;
5157;SDS011;2598;52.364;9.772;2022-12-17T07:18:20;19.40;;;8.70;;
5157;SDS011;2598;52.364;9.772;2022-12-17T07:21:06;14.15;;;8.00;;
5157;SDS011;2598;52.364;9.772;2022-12-17T07:23:51;21.83;;;9.55;;
5157;SDS011;2598;52.364;9.772;2022-12-17T07:26:35;16.27;;;9.23;;
5157;SDS011;2598;52.364;9.772;2022-12-17T07:29:20;20.75;;;10.15;;
5157;SDS011;2598;52.364;9.772;2022-12-17T07:32:04;18.95;;;9.00;;
5157;SDS011;2598;52.364;9.772;2022-12-17T07:34:49;17.30;;;8.82;;
5157;SDS011;2598;52.364;9.772;2022-12-17T07:37:33;18.95;;;9.55;;
5157;SDS011;2598;52.364;9.772;2022-12-17T07:40:18;21.92;;;9.45;;
5157;SDS011;2598;52.364;9.772;2022-12-17T07:43:08;25.05;;;10.82;;
5157;SDS011;2598;52.364;9.772;2022-12-17T07:45:53;20.98;;;9.82;;
5157;SDS011;2598;52.364;9.772;2022-12-17T07:48:37;19.17;;;9.02;;
5157;SDS011;2598;52.364;9.772;2022-12-17T07:51:22;16.63;;;8.30;;
5157;SDS011;2598;52.364;9.772;2022-12-17T07:54:06;20.70;;;9.32;;
5157;SDS011;2598;52.364;9.772;2022-12-17T07:56:51;20.15;;;8.20;;
5157;SDS011;2598;52.364;9.772;2022-12-17T07:59:35;21.85;;;9.02;;
5157;SDS011;2598;52.364;9.772;2022-12-17T08:02:20;22.58;;;9.30;;
5157;SDS011;2598;52.364;9.772;2022-12-17T08:05:05;18.40;;;8.88;;
5157;SDS011;2598;52.364;9.772;2022-12-17T08:07:49;20.38;;;8.60;;
5157;SDS011;2598;52.364;9.772;2022-12-17T08:10:34;20.42;;;7.70;;
5157;SDS011;2598;52.364;9.772;2022-12-17T08:13:19;18.05;;;7.88;;
5157;SDS011;2598;52.364;9.772;2022-12-17T08:16:03;16.70;;;7.93;;
5157;SDS011;2598;52.364;9.772;2022-12-17T08:18:48;17.20;;;8.32;;
5157;SDS011;2598;52.364;9.772;2022-12-17T08:21:32;16.65;;;7.65;;
5157;SDS011;2598;52.364;9.772;2022-12-17T08:24:17;18.38;;;8.55;;
5157;SDS011;2598;52.364;9.772;2022-12-17T08:27:01;23.90;;;9.70;;
5157;SDS011;2598;52.364;9.772;2022-12-17T08:29:46;18.77;;;8.20;;
5157;SDS011;2598;52.364;9.772;2022-12-17T08:32:30;23.20;;;9.05;;
5157;SDS011;2598;52.364;9.772;2022-12-17T08:35:15;18.73;;;8.35;;
5157;SDS011;2598;52.364;9.772;2022-12-17T08:38:03;17.13;;;7.68;;
5157;SDS011;2598;52.364;9.772;2022-12-17T08:40:48;17.15;;;8.30;;
5157;SDS011;2598;52.364;9.772;2022-12-17T08:43:32;17.90;;;9.38;;
5157;SDS011;2598;52.364;9.772;2022-12-17T08:46:17;21.60;;;8.57;;
5157;SDS011;2598;52.364;9.772;2022-12-17T08:49:02;18.15;;;8.45;;
5157;SDS011;2598;52.364;9.772;2022-12-17T08:51:46;20.42;;;8.38;;
5157;SDS011;2598;52.364;9.772;2022-12-17T08:54:31;17.13;;;8.52;;
5157;SDS011;2598;52.364;9.772;2022-12-17T08:57:15;23.77;;;8.93;;
5157;SDS011;2598;52.364;9.772;2022-12-17T09:00:00;15.10;;;7.78;;
5157;SDS011;2598;52.364;9.772;2022-12-17T09:02:44;21.95;;;9.20;;
5157;SDS011;2598;52.364;9.772;2022-12-17T09:05:29;19.67;;;9.38;;
5157;SDS011;2598;52.364;9.772;2022-12-17T09:08:13;17.05;;;8.05;;
5157;SDS011;2598;52.364;9.772;2022-12-17T09:10:58;19.85;;;8.93;;
5157;SDS011;2598;52.364;9.772;2022-12-17T09:13:43;19.80;;;8.90;;
5157;SDS011;2598;52.364;9.772;2022-12-17T09:16:28;25.20;;;9.00;;
5157;SDS011;2598;52.364;9.772;2022-12-17T09:19:12;25.02;;;9.85;;
5157;SDS011;2598;52.364;9.772;2022-12-17T09:21:57;22.98;;;10.43;;
5157;SDS011;2598;52.364;9.772;2022-12-17T09:24:41;22.55;;;9.93;;
5157;SDS011;2598;52.364;9.772;2022-12-17T09:27:26;24.60;;;9.98;;
5157;SDS011;2598;52.364;9.772;2022-12-17T09:30:11;22.85;;;10.95;;
5157;SDS011;2598;52.364;9.772;2022-12-17T09:32:56;19.98;;;10.00;;
5157;SDS011;2598;52.364;9.772;2022-12-17T09:35:40;19.05;;;9.73;;
5157;SDS011;2598;52.364;9.772;2022-12-17T09:38:25;24.58;;;11.50;;
5157;SDS011;2598;52.364;9.772;2022-12-17T09:44:21;21.75;;;9.52;;
5157;SDS011;2598;52.364;9.772;2022-12-17T09:47:26;21.95;;;10.60;;
5157;SDS011;2598;52.364;9.772;2022-12-17T09:50:13;21.08;;;10.00;;
5157;SDS011;2598;52.364;9.772;2022-12-17T09:53:02;28.75;;;10.88;;
5157;SDS011;2598;52.364;9.772;2022-12-17T09:55:51;18.17;;;8.68;;
5157;SDS011;2598;52.364;9.772;2022-12-17T09:58:37;24.08;;;9.27;;
5157;SDS011;2598;52.364;9.772;2022-12-17T10:01:23;19.27;;;10.40;;
5157;SDS011;2598;52.364;9.772;2022-12-17T10:04:13;22.40;;;8.52;;
5157;SDS011;2598;52.364;9.772;2022-12-17T10:06:59;15.80;;;8.80;;
5157;SDS011;2598;52.364;9.772;2022-12-17T10:09:45;16.48;;;8.98;;
5157;SDS011;2598;52.364;9.772;2022-12-17T10:12:32;22.73;;;9.77;;
5157;SDS011;2598;52.364;9.772;2022-12-17T10:15:17;24.35;;;10.48;;
5157;SDS011;2598;52.364;9.772;2022-12-17T10:18:05;22.83;;;8.70;;
5157;SDS011;2598;52.364;9.772;2022-12-17T10:20:54;18.15;;;9.25;;
5157;SDS011;2598;52.364;9.772;2022-12-17T10:23:40;22.25;;;9.48;;
5157;SDS011;2598;52.364;9.772;2022-12-17T10:26:26;22.17;;;9.43;;
5157;SDS011;2598;52.364;9.772;2022-12-17T10:29:12;18.00;;;9.13;;
5157;SDS011;2598;52.364;9.772;2022-12-17T10:31:58;19.25;;;9.23;;
5157;SDS011;2598;52.364;9.772;2022-12-17T10:34:44;19.20;;;10.50;;
5157;SDS011;2598;52.364;9.772;2022-12-17T10:37:29;20.88;;;9.38;;
5157;SDS011;2598;52.364;9.772;2022-12-17T10:40:28;27.83;;;9.88;;
5157;SDS011;2598;52.364;9.772;2022-12-17T10:43:27;17.17;;;8.95;;
5157;SDS011;2598;52.364;9.772;2022-12-17T10:49:26;26.98;;;9.27;;
5157;SDS011;2598;52.364;9.772;2022-12-17T10:55:17;18.02;;;9.35;;
5157;SDS011;2598;52.364;9.772;2022-12-17T10:58:03;19.73;;;9.63;;
5157;SDS011;2598;52.364;9.772;2022-12-17T11:00:48;20.30;;;8.70;;
5157;SDS011;2598;52.364;9.772;2022-12-17T11:03:38;19.92;;;8.85;;
5157;SDS011;2598;52.364;9.772;2022-12-17T11:06:37;21.42;;;9.52;;
5157;SDS011;2598;52.364;9.772;2022-12-17T11:12:28;20.00;;;8.90;;
5157;SDS011;2598;52.364;9.772;2022-12-17T11:15:18;15.48;;;8.43;;
5157;SDS011;2598;52.364;9.772;2022-12-17T11:18:05;20.40;;;8.60;;
5157;SDS011;2598;52.364;9.772;2022-12-17T11:20:52;20.42;;;8.98;;
5157;SDS011;2598;52.364;9.772;2022-12-17T11:23:37;21.20;;;9.15;;
5157;SDS011;2598;52.364;9.772;2022-12-17T11:26:24;20.50;;;8.85;;
5157;SDS011;2598;52.364;9.772;2022-12-17T11:29:13;19.23;;;9.20;;
5157;SDS011;2598;52.364;9.772;2022-12-17T11:32:12;21.75;;;9.18;;
5157;SDS011;2598;52.364;9.772;2022-12-17T11:40:40;18.88;;;8.90;;
5157;SDS011;2598;52.364;9.772;2022-12-17T11:43:38;16.35;;;7.90;;
5157;SDS011;2598;52.364;9.772;2022-12-17T11:49:25;20.23;;;8.70;;
5157;SDS011;2598;52.364;9.772;2022-12-17T11:52:31;15.48;;;8.30;;
5157;SDS011;2598;52.364;9.772;2022-12-17T11:58:10;19.33;;;8.45;;
5157;SDS011;2598;52.364;9.772;2022-12-17T12:03:55;18.48;;;8.93;;
5157;SDS011;2598;52.364;9.772;2022-12-17T12:09:38;18.30;;;7.55;;
5157;SDS011;2598;52.364;9.772;2022-12-17T12:21:15;17.88;;;8.07;;
5157;SDS011;2598;52.364;9.772;2022-12-17T12:24:51;22.60;;;8.23;;
5157;SDS011;2598;52.364;9.772;2022-12-17T12:27:21;15.63;;;7.65;;
5157;SDS011;2598;52.364;9.772;2022-12-17T12:30:14;14.13;;;8.30;;
5157;SDS011;2598;52.364;9.772;2022-12-17T12:35:47;17.35;;;8.82;;
5157;SDS011;2598;52.364;9.772;2022-12-17T12:38:33;24.65;;;8.85;;
5157;SDS011;2598;52.364;9.772;2022-12-17T12:41:23;19.58;;;8.82;;
5157;SDS011;2598;52.364;9.772;2022-12-17T12:44:18;17.30;;;7.63;;
5157;SDS011;2598;52.364;9.772;2022-12-17T12:47:09;15.35;;;8.30;;
5157;SDS011;2598;52.364;9.772;2022-12-17T12:49:59;20.42;;;8.55;;
5157;SDS011;2598;52.364;9.772;2022-12-17T12:52:45;20.27;;;8.85;;
5157;SDS011;2598;52.364;9.772;2022-12-17T12:55:37;15.80;;;6.88;;
5157;SDS011;2598;52.364;9.772;2022-12-17T12:58:23;17.98;;;7.90;;
5157;SDS011;2598;52.364;9.772;2022-12-17T13:01:08;18.08;;;7.72;;
5157;SDS011;2598;52.364;9.772;2022-12-17T13:03:54;18.63;;;8.82;;
5157;SDS011;2598;52.364;9.772;2022-12-17T13:11:42;12.20;;;6.75;;
5157;SDS011;2598;52.364;9.772;2022-12-17T13:14:12;14.32;;;7.60;;
5157;SDS011;2598;52.364;9.772;2022-12-17T13:16:48;15.85;;;7.15;;
5157;SDS011;2598;52.364;9.772;2022-12-17T13:19:33;13.77;;;7.07;;
5157;SDS011;2598;52.364;9.772;2022-12-17T13:24:42;12.48;;;6.40;;
5157;SDS011;2598;52.364;9.772;2022-12-17T13:29:54;15.70;;;6.90;;
5157;SDS011;2598;52.364;9.772;2022-12-17T13:32:22;17.50;;;7.50;;
5157;SDS011;2598;52.364;9.772;2022-12-17T13:34:59;16.98;;;7.40;;
5157;SDS011;2598;52.364;9.772;2022-12-17T13:37:39;15.98;;;7.72;;
5157;SDS011;2598;52.364;9.772;2022-12-17T13:40:18;16.85;;;7.13;;
5157;SDS011;2598;52.364;9.772;2022-12-17T13:42:45;13.13;;;6.60;;
5157;SDS011;2598;52.364;9.772;2022-12-17T13:45:15;14.13;;;7.35;;
5157;SDS011;2598;52.364;9.772;2022-12-17T13:47:41;15.63;;;7.60;;
5157;SDS011;2598;52.364;9.772;2022-12-17T13:50:18;14.20;;;6.95;;
5157;SDS011;2598;52.364;9.772;2022-12-17T13:52:45;18.65;;;7.55;;
5157;SDS011;2598;52.364;9.772;2022-12-17T13:55:21;17.83;;;7.10;;
5157;SDS011;2598;52.364;9.772;2022-12-17T13:57:49;15.15;;;7.30;;
5157;SDS011;2598;52.364;9.772;2022-12-17T14:00:23;26.98;;;7.28;;
5157;SDS011;2598;52.364;9.772;2022-12-17T14:02:49;18.08;;;7.40;;
5157;SDS011;2598;52.364;9.772;2022-12-17T14:05:29;14.45;;;6.57;;
5157;SDS011;2598;52.364;9.772;2022-12-17T14:07:59;13.43;;;6.60;;
5157;SDS011;2598;52.364;9.772;2022-12-17T14:10:25;15.75;;;7.20;;
5157;SDS011;2598;52.364;9.772;2022-12-17T14:12:58;23.98;;;7.70;;
5157;SDS011;2598;52.364;9.772;2022-12-17T14:15:26;16.77;;;7.75;;
5157;SDS011;2598;52.364;9.772;2022-12-17T14:17:54;18.50;;;7.37;;
5157;SDS011;2598;52.364;9.772;2022-12-17T14:20:21;13.43;;;7.07;;
5157;SDS011;2598;52.364;9.772;2022-12-17T14:22:52;19.08;;;8.18;;
5157;SDS011;2598;52.364;9.772;2022-12-17T14:27:52;16.00;;;8.10;;
5157;SDS011;2598;52.364;9.772;2022-12-17T14:30:19;13.23;;;7.40;;
5157;SDS011;2598;52.364;9.772;2022-12-17T14:32:46;17.15;;;8.25;;
5157;SDS011;2598;52.364;9.772;2022-12-17T14:35:26;16.17;;;7.43;;
5157;SDS011;2598;52.364;9.772;2022-12-17T14:37:52;16.88;;;7.55;;
5157;SDS011;2598;52.364;9.772;2022-12-17T14:40:18;16.23;;;8.38;;
5157;SDS011;2598;52.364;9.772;2022-12-17T14:42:44;15.52;;;7.97;;
5157;SDS011;2598;52.364;9.772;2022-12-17T14:47:39;18.88;;;8.38;;
5157;SDS011;2598;52.364;9.772;2022-12-17T14:52:35;19.20;;;8.35;;
5157;SDS011;2598;52.364;9.772;2022-12-17T14:57:47;17.65;;;8.05;;
5157;SDS011;2598;52.364;9.772;2022-12-17T15:00:13;21.95;;;8.82;;
5157;SDS011;2598;52.364;9.772;2022-12-17T15:02:39;18.58;;;8.02;;
5157;SDS011;2598;52.364;9.772;2022-12-17T15:05:08;22.98;;;8.75;;
5157;SDS011;2598;52.364;9.772;2022-12-17T15:07:38;16.55;;;8.20;;
5157;SDS011;2598;52.364;9.772;2022-12-17T15:10:11;20.90;;;8.07;;
5157;SDS011;2598;52.364;9.772;2022-12-17T15:12:37;17.95;;;8.32;;
5157;SDS011;2598;52.364;9.772;2022-12-17T15:15:05;15.88;;;7.75;;
5157;SDS011;2598;52.364;9.772;2022-12-17T15:17:31;15.23;;;7.25;;
5157;SDS011;2598;52.364;9.772;2022-12-17T15:19:57;17.00;;;8.00;;
5157;SDS011;2598;52.364;9.772;2022-12-17T15:22:23;14.53;;;7.53;;
5157;SDS011;2598;52.364;9.772;2022-12-17T15:24:49;16.08;;;7.95;;
5157;SDS011;2598;52.364;9.772;2022-12-17T15:27:15;14.93;;;7.60;;
5157;SDS011;2598;52.364;9.772;2022-12-17T15:29:42;15.43;;;8.35;;
5157;SDS011;2598;52.364;9.772;2022-12-17T15:32:16;17.30;;;9.20;;
5157;SDS011;2598;52.364;9.772;2022-12-17T15:34:42;20.98;;;10.60;;
5157;SDS011;2598;52.364;9.772;2022-12-17T15:37:08;22.58;;;10.18;;
5157;SDS011;2598;52.364;9.772;2022-12-17T15:39:34;32.33;;;12.60;;
5157;SDS011;2598;52.364;9.772;2022-12-17T15:42:00;23.90;;;12.30;;
5157;SDS011;2598;52.364;9.772;2022-12-17T15:44:45;27.88;;;12.18;;
5157;SDS011;2598;52.364;9.772;2022-12-17T15:47:11;25.63;;;12.07;;
5157;SDS011;2598;52.364;9.772;2022-12-17T15:49:37;21.83;;;10.93;;
5157;SDS011;2598;52.364;9.772;2022-12-17T15:52:03;23.23;;;11.67;;
5157;SDS011;2598;52.364;9.772;2022-12-17T15:54:29;22.75;;;10.57;;
5157;SDS011;2598;52.364;9.772;2022-12-17T15:56:55;21.50;;;9.80;;
5157;SDS011;2598;52.364;9.772;2022-12-17T15:59:22;24.00;;;10.80;;
5157;SDS011;2598;52.364;9.772;2022-12-17T16:01:48;17.95;;;9.77;;
5157;SDS011;2598;52.364;9.772;2022-12-17T16:04:14;25.42;;;11.32;;
5157;SDS011;2598;52.364;9.772;2022-12-17T16:06:40;24.30;;;9.90;;
5157;SDS011;2598;52.364;9.772;2022-12-17T16:09:06;28.77;;;11.50;;
5157;SDS011;2598;52.364;9.772;2022-12-17T16:11:32;25.40;;;10.90;;
5157;SDS011;2598;52.364;9.772;2022-12-17T16:13:58;24.20;;;11.17;;
5157;SDS011;2598;52.364;9.772;2022-12-17T16:16:24;21.90;;;10.93;;
5157;SDS011;2598;52.364;9.772;2022-12-17T16:18:50;25.93;;;11.40;;
5157;SDS011;2598;52.364;9.772;2022-12-17T16:21:16;27.27;;;12.30;;
5157;SDS011;2598;52.364;9.772;2022-12-17T16:23:42;26.85;;;14.40;;
5157;SDS011;2598;52.364;9.772;2022-12-17T16:26:09;25.83;;;13.70;;
5157;SDS011;2598;52.364;9.772;2022-12-17T16:28:35;24.75;;;14.43;;
5157;SDS011;2598;52.364;9.772;2022-12-17T16:31:06;25.23;;;13.50;;
5157;SDS011;2598;52.364;9.772;2022-12-17T16:33:36;27.27;;;14.73;;
5157;SDS011;2598;52.364;9.772;2022-12-17T16:36:02;29.55;;;13.73;;
5157;SDS011;2598;52.364;9.772;2022-12-17T16:38:28;24.45;;;12.32;;
5157;SDS011;2598;52.364;9.772;2022-12-17T16:40:55;27.75;;;12.75;;
5157;SDS011;2598;52.364;9.772;2022-12-17T16:43:21;23.85;;;12.68;;
5157;SDS011;2598;52.364;9.772;2022-12-17T16:45:48;22.23;;;11.10;;
5157;SDS011;2598;52.364;9.772;2022-12-17T16:48:14;25.23;;;12.52;;
5157;SDS011;2598;52.364;9.772;2022-12-17T16:50:42;23.42;;;12.50;;
5157;SDS011;2598;52.364;9.772;2022-12-17T16:53:08;22.63;;;11.43;;
5157;SDS011;2598;52.364;9.772;2022-12-17T16:55:40;28.85;;;12.35;;
5157;SDS011;2598;52.364;9.772;2022-12-17T16:58:07;20.40;;;11.68;;
5157;SDS011;2598;52.364;9.772;2022-12-17T17:00:33;31.38;;;12.80;;
5157;SDS011;2598;52.364;9.772;2022-12-17T17:02:59;22.33;;;11.13;;
5157;SDS011;2598;52.364;9.772;2022-12-17T17:05:26;26.95;;;12.30;;
5157;SDS011;2598;52.364;9.772;2022-12-17T17:07:52;24.58;;;13.90;;
5157;SDS011;2598;52.364;9.772;2022-12-17T17:10:18;27.43;;;12.50;;
5157;SDS011;2598;52.364;9.772;2022-12-17T17:12:44;22.30;;;11.65;;
5157;SDS011;2598;52.364;9.772;2022-12-17T17:15:10;27.60;;;12.33;;
5157;SDS011;2598;52.364;9.772;2022-12-17T17:17:36;28.20;;;13.15;;
5157;SDS011;2598;52.364;9.772;2022-12-17T17:20:02;26.70;;;12.87;;
5157;SDS011;2598;52.364;9.772;2022-12-17T17:22:28;25.83;;;12.70;;
5157;SDS011;2598;52.364;9.772;2022-12-17T17:24:54;28.87;;;13.83;;
5157;SDS011;2598;52.364;9.772;2022-12-17T17:27:20;28.80;;;14.68;;
5157;SDS011;2598;52.364;9.772;2022-12-17T17:29:46;28.37;;;13.60;;
5157;SDS011;2598;52.364;9.772;2022-12-17T17:32:12;29.50;;;14.52;;
5157;SDS011;2598;52.364;9.772;2022-12-17T17:34:38;25.93;;;14.07;;